sensor_id;sensor_type;location;lat;lon;timestamp;pressure;altitude;pressure_sealevel;temperature;humidity
64521;BME280;50896;46.714;17.322;2024-01-16T00:01:44;99538.81;;;-0.29;100.00
64521;BME280;50896;46.714;17.322;2024-01-16T00:04:11;99540.72;;;-0.31;100.00
64521;BME280;50896;46.714;17.322;2024-01-16T00:06:39;99544.66;;;-0.26;100.00
64521;BME280;50896;46.714;17.322;2024-01-16T00:09:08;99556.53;;;-0.33;100.00
64521;BME280;50896;46.714;17.322;2024-01-16T00:11:43;99569.97;;;-0.26;100.00
64521;BME280;50896;46.714;17.322;2024-01-16T00:14:10;99567.91;;;-0.34;100.00
64521;BME280;50896;46.714;17.322;2024-01-16T00:16:44;99568.03;;;-0.36;100.00
64521;BME280;50896;46.714;17.322;2024-01-16T00:19:12;99555.50;;;-0.43;100.00
64521;BME280;50896;46.714;17.322;2024-01-16T00:21:43;99563.03;;;-0.39;100.00
64521;BME280;50896;46.714;17.322;2024-01-16T00:24:13;99569.44;;;-0.43;100.00
64521;BME280;50896;46.714;17.322;2024-01-16T00:26:40;99576.41;;;-0.43;100.00
64521;BME280;50896;46.714;17.322;2024-01-16T00:29:07;99571.75;;;-0.51;100.00
64521;BME280;50896;46.714;17.322;2024-01-16T00:31:35;99587.53;;;-0.53;100.00
64521;BME280;50896;46.714;17.322;2024-01-16T00:34:02;99598.09;;;-0.54;100.00
64521;BME280;50896;46.714;17.322;2024-01-16T00:36:30;99614.72;;;-0.55;100.00
64521;BME280;50896;46.714;17.322;2024-01-16T00:38:57;99619.72;;;-0.52;100.00
64521;BME280;50896;46.714;17.322;2024-01-16T00:41:24;99621.16;;;-0.48;100.00
64521;BME280;50896;46.714;17.322;2024-01-16T00:43:51;99628.44;;;-0.40;100.00
64521;BME280;50896;46.714;17.322;2024-01-16T00:46:17;99619.91;;;-0.31;100.00
64521;BME280;50896;46.714;17.322;2024-01-16T00:48:44;99631.44;;;-0.33;100.00
64521;BME280;50896;46.714;17.322;2024-01-16T00:51:11;99628.00;;;-0.34;100.00
64521;BME280;50896;46.714;17.322;2024-01-16T00:53:42;99640.13;;;-0.33;100.00
64521;BME280;50896;46.714;17.322;2024-01-16T00:56:10;99648.28;;;-0.38;100.00
64521;BME280;50896;46.714;17.322;2024-01-16T00:58:38;99649.81;;;-0.35;100.00
64521;BME280;50896;46.714;17.322;2024-01-16T01:01:05;99649.75;;;-0.33;100.00
64521;BME280;50896;46.714;17.322;2024-01-16T01:03:31;99663.84;;;-0.36;100.00
64521;BME280;50896;46.714;17.322;2024-01-16T01:06:00;99668.97;;;-0.35;100.00
64521;BME280;50896;46.714;17.322;2024-01-16T01:08:27;99684.84;;;-0.38;100.00
64521;BME280;50896;46.714;17.322;2024-01-16T01:10:54;99691.63;;;-0.35;100.00
64521;BME280;50896;46.714;17.322;2024-01-16T01:13:22;99715.00;;;-0.21;100.00
64521;BME280;50896;46.714;17.322;2024-01-16T01:15:49;99713.13;;;-0.31;100.00
64521;BME280;50896;46.714;17.322;2024-01-16T01:18:15;99706.97;;;-0.30;100.00
64521;BME280;50896;46.714;17.322;2024-01-16T01:20:43;99707.22;;;-0.33;100.00
64521;BME280;50896;46.714;17.322;2024-01-16T01:23:10;99703.97;;;-0.37;100.00
64521;BME280;50896;46.714;17.322;2024-01-16T01:25:37;99703.03;;;-0.36;100.00
64521;BME280;50896;46.714;17.322;2024-01-16T01:28:04;99696.94;;;-0.37;100.00
64521;BME280;50896;46.714;17.322;2024-01-16T01:30:31;99694.44;;;-0.38;100.00
64521;BME280;50896;46.714;17.322;2024-01-16T01:32:58;99698.75;;;-0.37;100.00
64521;BME280;50896;46.714;17.322;2024-01-16T01:35:25;99711.91;;;-0.39;100.00
64521;BME280;50896;46.714;17.322;2024-01-16T01:37:53;99703.16;;;-0.38;100.00
64521;BME280;50896;46.714;17.322;2024-01-16T01:40:20;99705.84;;;-0.39;100.00
64521;BME280;50896;46.714;17.322;2024-01-16T01:42:47;99704.69;;;-0.35;100.00
64521;BME280;50896;46.714;17.322;2024-01-16T01:45:14;99707.22;;;-0.33;100.00
64521;BME280;50896;46.714;17.322;2024-01-16T01:47:41;99721.09;;;-0.33;100.00
64521;BME280;50896;46.714;17.322;2024-01-16T01:50:13;99699.75;;;-0.27;100.00
64521;BME280;50896;46.714;17.322;2024-01-16T01:52:40;99705.69;;;-0.25;100.00
64521;BME280;50896;46.714;17.322;2024-01-16T01:55:10;99707.91;;;-0.31;100.00
64521;BME280;50896;46.714;17.322;2024-01-16T01:57:39;99708.16;;;-0.35;100.00
64521;BME280;50896;46.714;17.322;2024-01-16T02:00:06;99725.69;;;-0.37;100.00
64521;BME280;50896;46.714;17.322;2024-01-16T02:02:41;99730.50;;;-0.30;100.00
64521;BME280;50896;46.714;17.322;2024-01-16T02:05:09;99719.69;;;-0.26;100.00
64521;BME280;50896;46.714;17.322;2024-01-16T02:07:37;99730.38;;;-0.29;100.00
64521;BME280;50896;46.714;17.322;2024-01-16T02:10:05;99728.09;;;-0.33;100.00
64521;BME280;50896;46.714;17.322;2024-01-16T02:12:32;99724.22;;;-0.28;100.00
64521;BME280;50896;46.714;17.322;2024-01-16T02:14:59;99739.59;;;-0.36;100.00
64521;BME280;50896;46.714;17.322;2024-01-16T02:17:25;99712.31;;;-0.32;100.00
64521;BME280;50896;46.714;17.322;2024-01-16T02:19:52;99726.44;;;-0.35;100.00
64521;BME280;50896;46.714;17.322;2024-01-16T02:22:20;99732.47;;;-0.34;100.00
64521;BME280;50896;46.714;17.322;2024-01-16T02:24:48;99730.31;;;-0.40;100.00
64521;BME280;50896;46.714;17.322;2024-01-16T02:27:15;99728.19;;;-0.35;100.00
64521;BME280;50896;46.714;17.322;2024-01-16T02:29:42;99729.56;;;-0.42;100.00
64521;BME280;50896;46.714;17.322;2024-01-16T02:32:12;99744.72;;;-0.35;100.00
64521;BME280;50896;46.714;17.322;2024-01-16T02:34:40;99743.16;;;-0.37;100.00
64521;BME280;50896;46.714;17.322;2024-01-16T02:37:07;99745.97;;;-0.40;100.00
64521;BME280;50896;46.714;17.322;2024-01-16T02:39:34;99753.69;;;-0.39;100.00
64521;BME280;50896;46.714;17.322;2024-01-16T02:42:01;99754.97;;;-0.44;100.00
64521;BME280;50896;46.714;17.322;2024-01-16T02:44:28;99759.44;;;-0.46;100.00
64521;BME280;50896;46.714;17.322;2024-01-16T02:46:55;99763.09;;;-0.49;100.00
64521;BME280;50896;46.714;17.322;2024-01-16T02:49:21;99773.88;;;-0.54;100.00
64521;BME280;50896;46.714;17.322;2024-01-16T02:51:49;99774.94;;;-0.56;100.00
64521;BME280;50896;46.714;17.322;2024-01-16T02:54:15;99783.63;;;-0.56;100.00
64521;BME280;50896;46.714;17.322;2024-01-16T02:56:42;99782.75;;;-0.56;100.00
64521;BME280;50896;46.714;17.322;2024-01-16T02:59:09;99782.56;;;-0.66;100.00
64521;BME280;50896;46.714;17.322;2024-01-16T03:01:36;99789.03;;;-0.72;100.00
64521;BME280;50896;46.714;17.322;2024-01-16T03:04:03;99791.03;;;-0.75;100.00
64521;BME280;50896;46.714;17.322;2024-01-16T03:06:30;99797.53;;;-0.81;100.00
64521;BME280;50896;46.714;17.322;2024-01-16T03:08:57;99805.13;;;-0.78;100.00
64521;BME280;50896;46.714;17.322;2024-01-16T03:11:24;99800.03;;;-0.79;100.00
64521;BME280;50896;46.714;17.322;2024-01-16T03:13:51;99801.88;;;-0.81;100.00
64521;BME280;50896;46.714;17.322;2024-01-16T03:16:20;99806.28;;;-0.82;100.00
64521;BME280;50896;46.714;17.322;2024-01-16T03:18:47;99796.06;;;-0.85;100.00
64521;BME280;50896;46.714;17.322;2024-01-16T03:21:14;99805.13;;;-0.78;100.00
64521;BME280;50896;46.714;17.322;2024-01-16T03:23:41;99818.19;;;-0.78;100.00
64521;BME280;50896;46.714;17.322;2024-01-16T03:26:14;99810.56;;;-0.81;100.00
64521;BME280;50896;46.714;17.322;2024-01-16T03:28:42;99824.56;;;-0.82;100.00
64521;BME280;50896;46.714;17.322;2024-01-16T03:31:09;99824.44;;;-0.80;100.00
64521;BME280;50896;46.714;17.322;2024-01-16T03:33:36;99819.44;;;-0.83;100.00
64521;BME280;50896;46.714;17.322;2024-01-16T03:36:09;99836.03;;;-0.72;100.00
64521;BME280;50896;46.714;17.322;2024-01-16T03:38:37;99836.03;;;-0.72;100.00
64521;BME280;50896;46.714;17.322;2024-01-16T03:41:04;99838.66;;;-0.72;100.00
64521;BME280;50896;46.714;17.322;2024-01-16T03:43:31;99844.63;;;-0.70;100.00
64521;BME280;50896;46.714;17.322;2024-01-16T03:45:57;99842.50;;;-0.64;100.00
64521;BME280;50896;46.714;17.322;2024-01-16T03:48:27;99841.56;;;-0.63;100.00
64521;BME280;50896;46.714;17.322;2024-01-16T03:50:55;99856.84;;;-0.57;100.00
64521;BME280;50896;46.714;17.322;2024-01-16T03:53:22;99854.94;;;-0.55;100.00
64521;BME280;50896;46.714;17.322;2024-01-16T03:55:49;99857.56;;;-0.55;100.00
64521;BME280;50896;46.714;17.322;2024-01-16T03:58:16;99856.63;;;-0.54;100.00
64521;BME280;50896;46.714;17.322;2024-01-16T04:00:44;99855.59;;;-0.52;100.00
64521;BME280;50896;46.714;17.322;2024-01-16T04:03:21;99856.19;;;-0.48;100.00
64521;BME280;50896;46.714;17.322;2024-01-16T04:05:48;99856.19;;;-0.48;100.00
64521;BME280;50896;46.714;17.322;2024-01-16T04:08:15;99858.69;;;-0.46;100.00
64521;BME280;50896;46.714;17.322;2024-01-16T04:10:42;99859.34;;;-0.43;100.00
64521;BME280;50896;46.714;17.322;2024-01-16T04:13:11;99865.06;;;-0.50;100.00
64521;BME280;50896;46.714;17.322;2024-01-16T04:20:04;99870.59;;;-0.42;100.00
64521;BME280;50896;46.714;17.322;2024-01-16T04:23:18;99871.66;;;-0.45;100.00
64521;BME280;50896;46.714;17.322;2024-01-16T04:26:18;99884.91;;;-0.48;100.00
64521;BME280;50896;46.714;17.322;2024-01-16T04:28:45;99898.50;;;-0.43;100.00
64521;BME280;50896;46.714;17.322;2024-01-16T04:31:12;99890.69;;;-0.43;100.00
64521;BME280;50896;46.714;17.322;2024-01-16T04:33:58;99896.50;;;-0.39;100.00
64521;BME280;50896;46.714;17.322;2024-01-16T04:36:59;99899.44;;;-0.44;100.00
64521;BME280;50896;46.714;17.322;2024-01-16T04:39:26;99901.63;;;-0.50;100.00
64521;BME280;50896;46.714;17.322;2024-01-16T04:41:53;99902.88;;;-0.56;100.00
64521;BME280;50896;46.714;17.322;2024-01-16T04:44:20;99903.31;;;-0.49;100.00
64521;BME280;50896;46.714;17.322;2024-01-16T04:46:47;99908.53;;;-0.49;100.00
64521;BME280;50896;46.714;17.322;2024-01-16T04:49:13;99910.31;;;-0.50;100.00
64521;BME280;50896;46.714;17.322;2024-01-16T04:51:40;99912.41;;;-0.55;100.00
64521;BME280;50896;46.714;17.322;2024-01-16T04:54:07;99912.59;;;-0.58;100.00
64521;BME280;50896;46.714;17.322;2024-01-16T04:56:34;99917.94;;;-0.60;100.00
64521;BME280;50896;46.714;17.322;2024-01-16T04:59:01;99927.75;;;-0.63;100.00
64521;BME280;50896;46.714;17.322;2024-01-16T05:01:28;99922.19;;;-0.59;100.00
64521;BME280;50896;46.714;17.322;2024-01-16T05:03:55;99922.72;;;-0.54;100.00
64521;BME280;50896;46.714;17.322;2024-01-16T05:06:22;99937.03;;;-0.59;100.00
64521;BME280;50896;46.714;17.322;2024-01-16T05:08:49;99941.44;;;-0.60;100.00
64521;BME280;50896;46.714;17.322;2024-01-16T05:11:16;99943.53;;;-0.52;100.00
64521;BME280;50896;46.714;17.322;2024-01-16T05:13:43;99942.06;;;-0.56;100.00
64521;BME280;50896;46.714;17.322;2024-01-16T05:16:09;99946.66;;;-0.60;100.00
64521;BME280;50896;46.714;17.322;2024-01-16T05:18:36;99950.19;;;-0.61;100.00
64521;BME280;50896;46.714;17.322;2024-01-16T05:21:04;99952.81;;;-0.61;100.00
64521;BME280;50896;46.714;17.322;2024-01-16T05:23:31;99958.88;;;-0.60;100.00
64521;BME280;50896;46.714;17.322;2024-01-16T05:25:58;99966.91;;;-0.50;100.00
64521;BME280;50896;46.714;17.322;2024-01-16T05:28:25;99968.72;;;-0.51;100.00
64521;BME280;50896;46.714;17.322;2024-01-16T05:30:52;99983.13;;;-0.45;100.00
64521;BME280;50896;46.714;17.322;2024-01-16T05:33:18;99976.44;;;-0.49;100.00
64521;BME280;50896;46.714;17.322;2024-01-16T05:35:45;99983.72;;;-0.55;100.00
64521;BME280;50896;46.714;17.322;2024-01-16T05:38:12;99980.59;;;-0.60;100.00
64521;BME280;50896;46.714;17.322;2024-01-16T05:40:39;99982.91;;;-0.55;100.00
64521;BME280;50896;46.714;17.322;2024-01-16T05:43:06;99979.59;;;-0.44;100.00
64521;BME280;50896;46.714;17.322;2024-01-16T05:45:33;99988.91;;;-0.40;100.00
64521;BME280;50896;46.714;17.322;2024-01-16T05:48:00;99991.38;;;-0.52;100.00
64521;BME280;50896;46.714;17.322;2024-01-16T05:50:27;99983.31;;;-0.61;100.00
64521;BME280;50896;46.714;17.322;2024-01-16T05:52:54;99991.34;;;-0.64;100.00
64521;BME280;50896;46.714;17.322;2024-01-16T05:55:21;100002.00;;;-0.55;100.00
64521;BME280;50896;46.714;17.322;2024-01-16T05:57:48;100002.31;;;-0.59;100.00
64521;BME280;50896;46.714;17.322;2024-01-16T06:00:15;100009.91;;;-0.69;100.00
64521;BME280;50896;46.714;17.322;2024-01-16T06:02:44;100014.41;;;-0.71;100.00
64521;BME280;50896;46.714;17.322;2024-01-16T06:05:11;100024.31;;;-0.76;100.00
64521;BME280;50896;46.714;17.322;2024-01-16T06:07:38;100025.44;;;-0.80;100.00
64521;BME280;50896;46.714;17.322;2024-01-16T06:10:06;100026.63;;;-0.72;100.00
64521;BME280;50896;46.714;17.322;2024-01-16T06:12:33;100033.22;;;-0.66;100.00
64521;BME280;50896;46.714;17.322;2024-01-16T06:15:01;100034.56;;;-0.73;100.00
64521;BME280;50896;46.714;17.322;2024-01-16T06:17:28;100023.91;;;-0.70;100.00
64521;BME280;50896;46.714;17.322;2024-01-16T06:19:55;100032.38;;;-0.66;100.00
64521;BME280;50896;46.714;17.322;2024-01-16T06:22:22;100036.69;;;-0.65;100.00
64521;BME280;50896;46.714;17.322;2024-01-16T06:24:49;100043.41;;;-0.76;100.00
64521;BME280;50896;46.714;17.322;2024-01-16T06:27:15;100042.88;;;-0.81;100.00
64521;BME280;50896;46.714;17.322;2024-01-16T06:29:45;100052.78;;;-0.86;100.00
64521;BME280;50896;46.714;17.322;2024-01-16T06:32:13;100049.97;;;-0.83;100.00
64521;BME280;50896;46.714;17.322;2024-01-16T06:34:40;100050.16;;;-0.86;100.00
64521;BME280;50896;46.714;17.322;2024-01-16T06:37:07;100056.13;;;-0.84;100.00
64521;BME280;50896;46.714;17.322;2024-01-16T06:39:36;100051.28;;;-0.90;100.00
64521;BME280;50896;46.714;17.322;2024-01-16T06:42:04;100067.50;;;-0.85;100.00
64521;BME280;50896;46.714;17.322;2024-01-16T06:44:36;100065.94;;;-0.88;100.00
64521;BME280;50896;46.714;17.322;2024-01-16T06:47:03;100072.06;;;-0.89;100.00
64521;BME280;50896;46.714;17.322;2024-01-16T06:49:30;100076.38;;;-0.88;100.00
64521;BME280;50896;46.714;17.322;2024-01-16T06:51:57;100086.06;;;-0.90;100.00
64521;BME280;50896;46.714;17.322;2024-01-16T06:54:24;100091.72;;;-0.83;100.00
64521;BME280;50896;46.714;17.322;2024-01-16T06:56:51;100100.50;;;-0.84;100.00
64521;BME280;50896;46.714;17.322;2024-01-16T06:59:18;100102.06;;;-0.81;100.00
64521;BME280;50896;46.714;17.322;2024-01-16T07:01:46;100101.88;;;-0.78;100.00
64521;BME280;50896;46.714;17.322;2024-01-16T07:04:13;100108.78;;;-0.77;100.00
64521;BME280;50896;46.714;17.322;2024-01-16T07:06:43;100114.47;;;-0.71;100.00
64521;BME280;50896;46.714;17.322;2024-01-16T07:09:10;100115.13;;;-0.67;100.00
64521;BME280;50896;46.714;17.322;2024-01-16T07:11:39;100126.59;;;-0.70;100.00
64521;BME280;50896;46.714;17.322;2024-01-16T07:14:09;100121.72;;;-0.76;100.00
64521;BME280;50896;46.714;17.322;2024-01-16T07:16:37;100123.31;;;-0.73;100.00
64521;BME280;50896;46.714;17.322;2024-01-16T07:19:04;100125.00;;;-0.72;100.00
64521;BME280;50896;46.714;17.322;2024-01-16T07:21:31;100137.94;;;-0.71;100.00
64521;BME280;50896;46.714;17.322;2024-01-16T07:23:58;100139.63;;;-0.70;100.00
64521;BME280;50896;46.714;17.322;2024-01-16T07:26:25;100141.28;;;-0.69;100.00
64521;BME280;50896;46.714;17.322;2024-01-16T07:28:52;100147.16;;;-0.65;100.00
64521;BME280;50896;46.714;17.322;2024-01-16T07:31:19;100151.38;;;-0.62;100.00
64521;BME280;50896;46.714;17.322;2024-01-16T07:33:46;100153.47;;;-0.55;100.00
64521;BME280;50896;46.714;17.322;2024-01-16T07:36:14;100154.13;;;-0.51;100.00
64521;BME280;50896;46.714;17.322;2024-01-16T07:38:41;100166.06;;;-0.47;100.00
64521;BME280;50896;46.714;17.322;2024-01-16T07:41:07;100169.22;;;-0.42;100.00
64521;BME280;50896;46.714;17.322;2024-01-16T07:43:35;100172.13;;;-0.46;100.00
64521;BME280;50896;46.714;17.322;2024-01-16T07:46:02;100172.13;;;-0.46;100.00
64521;BME280;50896;46.714;17.322;2024-01-16T07:48:29;100182.75;;;-0.49;100.00
64521;BME280;50896;46.714;17.322;2024-01-16T07:50:57;100192.47;;;-0.52;100.00
64521;BME280;50896;46.714;17.322;2024-01-16T07:53:23;100191.06;;;-0.43;100.00
64521;BME280;50896;46.714;17.322;2024-01-16T07:55:54;100187.31;;;-0.39;100.00
64521;BME280;50896;46.714;17.322;2024-01-16T07:58:21;100183.94;;;-0.41;100.00
64521;BME280;50896;46.714;17.322;2024-01-16T08:00:48;100193.66;;;-0.43;100.00
64521;BME280;50896;46.714;17.322;2024-01-16T08:03:15;100188.34;;;-0.41;100.00
64521;BME280;50896;46.714;17.322;2024-01-16T08:05:42;100187.22;;;-0.37;100.00
64521;BME280;50896;46.714;17.322;2024-01-16T08:08:10;100195.72;;;-0.33;100.00
64521;BME280;50896;46.714;17.322;2024-01-16T08:10:37;100191.59;;;-0.38;100.00
64521;BME280;50896;46.714;17.322;2024-01-16T08:13:04;100190.28;;;-0.30;100.00
64521;BME280;50896;46.714;17.322;2024-01-16T08:15:31;100198.00;;;-0.29;100.00
64521;BME280;50896;46.714;17.322;2024-01-16T08:17:58;100202.59;;;-0.32;100.00
64521;BME280;50896;46.714;17.322;2024-01-16T08:20:25;100199.44;;;-0.38;100.00
64521;BME280;50896;46.714;17.322;2024-01-16T08:22:53;100208.13;;;-0.37;100.00
64521;BME280;50896;46.714;17.322;2024-01-16T08:25:20;100221.28;;;-0.39;100.00
64521;BME280;50896;46.714;17.322;2024-01-16T08:27:47;100214.16;;;-0.37;100.00
64521;BME280;50896;46.714;17.322;2024-01-16T08:30:14;100227.44;;;-0.40;100.00
64521;BME280;50896;46.714;17.322;2024-01-16T08:32:41;100220.50;;;-0.41;100.00
64521;BME280;50896;46.714;17.322;2024-01-16T08:35:08;100225.28;;;-0.33;100.00
64521;BME280;50896;46.714;17.322;2024-01-16T08:37:35;100224.16;;;-0.29;100.00
64521;BME280;50896;46.714;17.322;2024-01-16T08:40:02;100230.19;;;-0.28;100.00
64521;BME280;50896;46.714;17.322;2024-01-16T08:42:31;100236.28;;;-0.28;100.00
64521;BME280;50896;46.714;17.322;2024-01-16T08:44:58;100235.06;;;-0.22;100.00
64521;BME280;50896;46.714;17.322;2024-01-16T08:47:24;100235.97;;;-0.23;100.00
64521;BME280;50896;46.714;17.322;2024-01-16T08:49:51;100234.19;;;-0.23;100.00
64521;BME280;50896;46.714;17.322;2024-01-16T08:52:42;100237.06;;;-0.13;100.00
64521;BME280;50896;46.714;17.322;2024-01-16T08:55:17;100230.44;;;-0.19;100.00
64521;BME280;50896;46.714;17.322;2024-01-16T08:57:45;100236.69;;;-0.21;100.00
64521;BME280;50896;46.714;17.322;2024-01-16T09:00:12;100250.44;;;-0.18;100.00
64521;BME280;50896;46.714;17.322;2024-01-16T09:02:39;100252.38;;;-0.21;100.00
64521;BME280;50896;46.714;17.322;2024-01-16T09:05:06;100252.00;;;-0.15;100.00
64521;BME280;50896;46.714;17.322;2024-01-16T09:07:34;100248.94;;;-0.22;100.00
64521;BME280;50896;46.714;17.322;2024-01-16T09:10:00;100251.56;;;-0.22;100.00
64521;BME280;50896;46.714;17.322;2024-01-16T09:12:27;100253.69;;;-0.14;100.00
64521;BME280;50896;46.714;17.322;2024-01-16T09:14:54;100256.94;;;-0.10;100.00
64521;BME280;50896;46.714;17.322;2024-01-16T09:17:21;100246.59;;;-0.12;100.00
64521;BME280;50896;46.714;17.322;2024-01-16T09:19:48;100251.91;;;-0.13;100.00
64521;BME280;50896;46.714;17.322;2024-01-16T09:22:15;100262.16;;;-0.10;100.00
64521;BME280;50896;46.714;17.322;2024-01-16T09:24:42;100255.91;;;-0.08;100.00
64521;BME280;50896;46.714;17.322;2024-01-16T09:27:09;100252.25;;;-0.05;100.00
64521;BME280;50896;46.714;17.322;2024-01-16T09:29:36;100257.19;;;-0.01;100.00
64521;BME280;50896;46.714;17.322;2024-01-16T09:32:03;100243.00;;;0.04;100.00
64521;BME280;50896;46.714;17.322;2024-01-16T09:34:31;100233.81;;;0.11;100.00
64521;BME280;50896;46.714;17.322;2024-01-16T09:36:58;100245.53;;;0.18;100.00
64521;BME280;50896;46.714;17.322;2024-01-16T09:39:27;100243.47;;;0.23;100.00
64521;BME280;50896;46.714;17.322;2024-01-16T16:13:42;100171.34;;;-0.07;100.00
64521;BME280;50896;46.714;17.322;2024-01-16T16:16:10;100173.00;;;-0.06;100.00
64521;BME280;50896;46.714;17.322;2024-01-16T16:18:37;100180.22;;;-0.09;100.00
64521;BME280;50896;46.714;17.322;2024-01-16T16:21:04;100174.44;;;-0.14;100.00
64521;BME280;50896;46.714;17.322;2024-01-16T16:23:31;100184.91;;;-0.14;100.00
64521;BME280;50896;46.714;17.322;2024-01-16T16:25:58;100177.50;;;-0.08;100.00
64521;BME280;50896;46.714;17.322;2024-01-16T16:28:25;100171.53;;;-0.10;100.00
64521;BME280;50896;46.714;17.322;2024-01-16T16:30:52;100165.56;;;-0.12;100.00
64521;BME280;50896;46.714;17.322;2024-01-16T16:33:19;100168.91;;;-0.10;100.00
64521;BME280;50896;46.714;17.322;2024-01-16T16:35:46;100157.72;;;-0.12;100.00
64521;BME280;50896;46.714;17.322;2024-01-16T16:38:13;100167.03;;;-0.08;100.00
64521;BME280;50896;46.714;17.322;2024-01-16T16:40:40;100156.81;;;-0.11;100.00
64521;BME280;50896;46.714;17.322;2024-01-16T16:43:07;100166.69;;;-0.16;100.00
64521;BME280;50896;46.714;17.322;2024-01-16T16:45:34;100174.53;;;-0.16;100.00
64521;BME280;50896;46.714;17.322;2024-01-16T16:48:03;100178.19;;;-0.19;100.00
64521;BME280;50896;46.714;17.322;2024-01-16T16:50:30;100164.69;;;-0.25;100.00
64521;BME280;50896;46.714;17.322;2024-01-16T16:52:57;100159.38;;;-0.24;100.00
64521;BME280;50896;46.714;17.322;2024-01-16T16:55:24;100174.31;;;-0.26;100.00
64521;BME280;50896;46.714;17.322;2024-01-16T16:57:51;100168.25;;;-0.26;100.00
64521;BME280;50896;46.714;17.322;2024-01-16T17:00:18;100163.19;;;-0.29;100.00
64521;BME280;50896;46.714;17.322;2024-01-16T17:02:45;100168.34;;;-0.28;100.00
64521;BME280;50896;46.714;17.322;2024-01-16T17:05:12;100171.78;;;-0.27;100.00
64521;BME280;50896;46.714;17.322;2024-01-16T17:07:39;100165.31;;;-0.22;100.00
64521;BME280;50896;46.714;17.322;2024-01-16T17:10:06;100174.94;;;-0.22;100.00
64521;BME280;50896;46.714;17.322;2024-01-16T17:12:33;100171.59;;;-0.24;100.00
64521;BME280;50896;46.714;17.322;2024-01-16T17:15:00;100171.78;;;-0.27;100.00
64521;BME280;50896;46.714;17.322;2024-01-16T17:17:27;100168.34;;;-0.28;100.00
64521;BME280;50896;46.714;17.322;2024-01-16T17:19:56;100154.22;;;-0.25;100.00
64521;BME280;50896;46.714;17.322;2024-01-16T17:22:23;100162.78;;;-0.36;100.00
64521;BME280;50896;46.714;17.322;2024-01-16T17:24:49;100167.03;;;-0.35;100.00
64521;BME280;50896;46.714;17.322;2024-01-16T17:27:16;100167.16;;;-0.37;100.00
64521;BME280;50896;46.714;17.322;2024-01-16T17:29:44;100157.00;;;-0.41;100.00
64521;BME280;50896;46.714;17.322;2024-01-16T17:32:11;100151.88;;;-0.43;100.00
64521;BME280;50896;46.714;17.322;2024-01-16T17:34:38;100140.97;;;-0.49;100.00
64521;BME280;50896;46.714;17.322;2024-01-16T17:37:05;100145.63;;;-0.40;100.00
64521;BME280;50896;46.714;17.322;2024-01-16T17:39:32;100145.78;;;-0.43;100.00
64521;BME280;50896;46.714;17.322;2024-01-16T17:41:59;100140.66;;;-0.45;100.00
64521;BME280;50896;46.714;17.322;2024-01-16T17:44:26;100141.63;;;-0.46;100.00
64521;BME280;50896;46.714;17.322;2024-01-16T17:46:52;100130.31;;;-0.46;100.00
64521;BME280;50896;46.714;17.322;2024-01-16T17:49:20;100127.81;;;-0.48;100.00
64521;BME280;50896;46.714;17.322;2024-01-16T17:51:46;100125.19;;;-0.48;100.00
64521;BME280;50896;46.714;17.322;2024-01-16T17:54:15;100129.88;;;-0.53;100.00
64521;BME280;50896;46.714;17.322;2024-01-16T17:56:46;100121.09;;;-0.52;100.00
64521;BME280;50896;46.714;17.322;2024-01-16T17:59:14;100129.25;;;-0.57;100.00
64521;BME280;50896;46.714;17.322;2024-01-16T18:01:41;100120.75;;;-0.60;100.00
64521;BME280;50896;46.714;17.322;2024-01-16T18:04:08;100114.81;;;-0.62;100.00
64521;BME280;50896;46.714;17.322;2024-01-16T18:06:35;100116.56;;;-0.63;100.00
64521;BME280;50896;46.714;17.322;2024-01-16T18:09:02;100122.53;;;-0.61;100.00
64521;BME280;50896;46.714;17.322;2024-01-16T18:11:57;100118.59;;;-0.54;100.00
64521;BME280;50896;46.714;17.322;2024-01-16T18:14:24;100120.66;;;-0.59;100.00
64521;BME280;50896;46.714;17.322;2024-01-16T18:16:52;100124.41;;;-0.63;100.00
64521;BME280;50896;46.714;17.322;2024-01-16T18:19:20;100118.34;;;-0.63;100.00
64521;BME280;50896;46.714;17.322;2024-01-16T18:21:54;100119.28;;;-0.64;100.00
64521;BME280;50896;46.714;17.322;2024-01-16T18:24:22;100117.41;;;-0.62;100.00
64521;BME280;50896;46.714;17.322;2024-01-16T18:26:48;100119.00;;;-0.60;100.00
64521;BME280;50896;46.714;17.322;2024-01-16T18:29:16;100117.78;;;-0.69;100.00
64521;BME280;50896;46.714;17.322;2024-01-16T18:31:47;100109.53;;;-0.75;100.00
64521;BME280;50896;46.714;17.322;2024-01-16T18:34:14;100108.41;;;-0.71;100.00
64521;BME280;50896;46.714;17.322;2024-01-16T18:36:47;100110.16;;;-0.72;100.00
64521;BME280;50896;46.714;17.322;2024-01-16T18:39:16;100107.00;;;-0.77;100.00
64521;BME280;50896;46.714;17.322;2024-01-16T18:41:48;100103.00;;;-0.82;100.00
64521;BME280;50896;46.714;17.322;2024-01-16T18:44:16;100105.81;;;-0.86;100.00
64521;BME280;50896;46.714;17.322;2024-01-16T18:46:43;100110.84;;;-0.82;100.00
64521;BME280;50896;46.714;17.322;2024-01-16T18:49:11;100109.34;;;-0.87;100.00
64521;BME280;50896;46.714;17.322;2024-01-16T18:51:42;100108.06;;;-0.94;100.00
64521;BME280;50896;46.714;17.322;2024-01-16T18:54:09;100115.16;;;-0.96;100.00
64521;BME280;50896;46.714;17.322;2024-01-16T18:56:36;100120.19;;;-0.93;100.00
64521;BME280;50896;46.714;17.322;2024-01-16T18:59:05;100121.97;;;-0.93;100.00
64521;BME280;50896;46.714;17.322;2024-01-16T19:01:33;100109.66;;;-0.91;100.00
64521;BME280;50896;46.714;17.322;2024-01-16T19:04:01;100104.63;;;-0.94;100.00
64521;BME280;50896;46.714;17.322;2024-01-16T19:06:28;100116.75;;;-0.93;100.00
64521;BME280;50896;46.714;17.322;2024-01-16T19:08:55;100123.81;;;-0.95;100.00
64521;BME280;50896;46.714;17.322;2024-01-16T19:11:23;100112.75;;;-0.99;100.00
64521;BME280;50896;46.714;17.322;2024-01-16T19:13:50;100113.38;;;-0.95;100.00
64521;BME280;50896;46.714;17.322;2024-01-16T19:16:17;100119.44;;;-0.95;100.00